sensor_id;sensor_type;location;lat;lon;timestamp;pressure;altitude;pressure_sealevel;temperature;humidity
10948;BME280;5526;42.070;24.752;2022-07-23T00:02:24;99016.47;;;24.90;45.57
10948;BME280;5526;42.070;24.752;2022-07-23T00:04:51;99015.34;;;24.91;45.29
10948;BME280;5526;42.070;24.752;2022-07-23T00:07:18;99017.69;;;24.92;45.72
10948;BME280;5526;42.070;24.752;2022-07-23T00:09:45;99015.34;;;24.91;45.73
10948;BME280;5526;42.070;24.752;2022-07-23T00:12:12;99021.84;;;24.90;46.19
10948;BME280;5526;42.070;24.752;2022-07-23T00:14:41;99013.34;;;24.88;46.80
10948;BME280;5526;42.070;24.752;2022-07-23T00:17:07;99015.88;;;24.81;47.74
10948;BME280;5526;42.070;24.752;2022-07-23T00:19:34;99018.38;;;24.74;48.31
10948;BME280;5526;42.070;24.752;2022-07-23T00:22:01;99016.84;;;24.61;49.17
10948;BME280;5526;42.070;24.752;2022-07-23T00:24:28;99020.69;;;24.60;49.15
10948;BME280;5526;42.070;24.752;2022-07-23T00:26:55;99016.75;;;24.57;49.12
10948;BME280;5526;42.070;24.752;2022-07-23T00:29:22;99016.66;;;24.53;49.21
10948;BME280;5526;42.070;24.752;2022-07-23T00:31:50;99018.56;;;24.53;48.88
10948;BME280;5526;42.070;24.752;2022-07-23T00:34:17;99029.31;;;24.53;48.78
10948;BME280;5526;42.070;24.752;2022-07-23T00:36:44;99013.97;;;24.53;48.32
10948;BME280;5526;42.070;24.752;2022-07-23T00:39:11;99017.66;;;24.49;48.19
10948;BME280;5526;42.070;24.752;2022-07-23T00:41:38;99024.53;;;24.46;48.08
10948;BME280;5526;42.070;24.752;2022-07-23T00:44:15;99024.00;;;24.41;48.98
10948;BME280;5526;42.070;24.752;2022-07-23T00:46:47;99024.91;;;24.33;48.83
10948;BME280;5526;42.070;24.752;2022-07-23T00:49:16;99024.84;;;24.29;49.08
10948;BME280;5526;42.070;24.752;2022-07-23T00:51:43;99022.81;;;24.26;48.83
10948;BME280;5526;42.070;24.752;2022-07-23T00:54:10;99023.50;;;24.23;48.88
10948;BME280;5526;42.070;24.752;2022-07-23T00:56:37;99023.88;;;24.10;49.11
10948;BME280;5526;42.070;24.752;2022-07-23T00:59:05;99027.69;;;24.09;49.12
10948;BME280;5526;42.070;24.752;2022-07-23T01:01:32;99018.63;;;24.13;49.10
10948;BME280;5526;42.070;24.752;2022-07-23T01:03:59;99022.31;;;24.09;49.33
10948;BME280;5526;42.070;24.752;2022-07-23T01:06:28;99023.53;;;24.11;49.52
10948;BME280;5526;42.070;24.752;2022-07-23T01:08:55;99024.00;;;24.13;49.21
10948;BME280;5526;42.070;24.752;2022-07-23T01:11:23;99026.47;;;24.06;49.35
10948;BME280;5526;42.070;24.752;2022-07-23T01:13:50;99026.16;;;24.08;49.30
10948;BME280;5526;42.070;24.752;2022-07-23T01:16:17;99029.16;;;24.06;49.35
10948;BME280;5526;42.070;24.752;2022-07-23T01:18:44;99028.16;;;24.11;49.20
10948;BME280;5526;42.070;24.752;2022-07-23T01:21:11;99025.47;;;24.11;49.32
10948;BME280;5526;42.070;24.752;2022-07-23T01:23:41;99027.78;;;24.12;49.62
10948;BME280;5526;42.070;24.752;2022-07-23T01:26:08;99017.03;;;24.12;49.60
10948;BME280;5526;42.070;24.752;2022-07-23T01:28:35;99027.78;;;24.12;49.58
10948;BME280;5526;42.070;24.752;2022-07-23T01:31:02;99025.56;;;24.14;49.40
10948;BME280;5526;42.070;24.752;2022-07-23T01:33:29;99021.19;;;24.10;49.34
10948;BME280;5526;42.070;24.752;2022-07-23T01:35:56;99028.59;;;24.13;49.30
10948;BME280;5526;42.070;24.752;2022-07-23T01:38:23;99029.47;;;24.17;49.18
10948;BME280;5526;42.070;24.752;2022-07-23T01:40:51;99029.94;;;24.19;49.39
10948;BME280;5526;42.070;24.752;2022-07-23T01:43:18;99033.53;;;24.11;49.90
10948;BME280;5526;42.070;24.752;2022-07-23T01:45:45;99033.06;;;24.09;50.29
10948;BME280;5526;42.070;24.752;2022-07-23T01:48:12;99024.59;;;24.07;50.41
10948;BME280;5526;42.070;24.752;2022-07-23T01:50:39;99025.94;;;24.01;50.39
10948;BME280;5526;42.070;24.752;2022-07-23T01:53:05;99023.56;;;23.99;50.44
10948;BME280;5526;42.070;24.752;2022-07-23T01:55:32;99026.34;;;23.91;50.80
10948;BME280;5526;42.070;24.752;2022-07-23T01:58:01;99030.19;;;23.90;51.13
10948;BME280;5526;42.070;24.752;2022-07-23T02:00:28;99027.97;;;23.92;51.47
10948;BME280;5526;42.070;24.752;2022-07-23T02:02:55;99030.09;;;23.86;52.04
10948;BME280;5526;42.070;24.752;2022-07-23T02:05:23;99026.94;;;23.84;51.84
10948;BME280;5526;42.070;24.752;2022-07-23T02:07:50;99027.63;;;23.81;51.41
10948;BME280;5526;42.070;24.752;2022-07-23T02:10:17;99027.28;;;23.83;51.26
10948;BME280;5526;42.070;24.752;2022-07-23T02:12:44;99035.25;;;23.79;51.10
10948;BME280;5526;42.070;24.752;2022-07-23T02:15:13;99033.56;;;23.75;51.17
10948;BME280;5526;42.070;24.752;2022-07-23T02:17:40;99029.56;;;23.69;50.89
10948;BME280;5526;42.070;24.752;2022-07-23T02:20:09;99034.81;;;23.65;50.47
10948;BME280;5526;42.070;24.752;2022-07-23T02:22:36;99034.81;;;23.65;49.55
10948;BME280;5526;42.070;24.752;2022-07-23T02:25:04;99036.72;;;23.65;49.33
10948;BME280;5526;42.070;24.752;2022-07-23T02:27:31;99034.03;;;23.65;49.42
10948;BME280;5526;42.070;24.752;2022-07-23T02:29:58;99038.84;;;23.59;49.50
10948;BME280;5526;42.070;24.752;2022-07-23T02:32:27;99026.88;;;23.57;49.95
10948;BME280;5526;42.070;24.752;2022-07-23T02:34:54;99028.13;;;23.47;50.56
10948;BME280;5526;42.070;24.752;2022-07-23T02:37:21;99035.28;;;23.43;50.91
10948;BME280;5526;42.070;24.752;2022-07-23T02:39:48;99032.38;;;23.48;50.42
10948;BME280;5526;42.070;24.752;2022-07-23T02:42:15;99032.03;;;23.50;50.36
10948;BME280;5526;42.070;24.752;2022-07-23T02:44:41;99026.66;;;23.38;50.67
10948;BME280;5526;42.070;24.752;2022-07-23T02:47:08;99027.66;;;23.33;51.28
10948;BME280;5526;42.070;24.752;2022-07-23T02:49:37;99031.69;;;23.39;51.42
10948;BME280;5526;42.070;24.752;2022-07-23T02:52:04;99032.69;;;23.35;51.65
10948;BME280;5526;42.070;24.752;2022-07-23T02:54:31;99037.63;;;23.33;51.60
10948;BME280;5526;42.070;24.752;2022-07-23T02:56:58;99038.16;;;23.26;51.91
10948;BME280;5526;42.070;24.752;2022-07-23T02:59:25;99034.94;;;23.21;52.54
10948;BME280;5526;42.070;24.752;2022-07-23T03:01:52;99037.13;;;23.19;52.97
10948;BME280;5526;42.070;24.752;2022-07-23T03:04:19;99028.78;;;23.20;53.31
10948;BME280;5526;42.070;24.752;2022-07-23T03:06:47;99040.41;;;23.24;53.22
10948;BME280;5526;42.070;24.752;2022-07-23T03:09:14;99036.84;;;23.20;53.23
10948;BME280;5526;42.070;24.752;2022-07-23T03:11:41;99039.38;;;23.17;53.28
10948;BME280;5526;42.070;24.752;2022-07-23T03:14:08;99042.66;;;23.22;53.39
10948;BME280;5526;42.070;24.752;2022-07-23T03:16:38;99041.97;;;23.25;53.40
10948;BME280;5526;42.070;24.752;2022-07-23T03:19:05;99044.22;;;23.23;53.61
10948;BME280;5526;42.070;24.752;2022-07-23T03:21:32;99042.22;;;23.32;52.99
10948;BME280;5526;42.070;24.752;2022-07-23T03:24:01;99045.78;;;23.48;52.07
10948;BME280;5526;42.070;24.752;2022-07-23T03:26:28;99056.31;;;23.53;52.40
10948;BME280;5526;42.070;24.752;2022-07-23T03:28:55;99043.91;;;23.61;52.32
10948;BME280;5526;42.070;24.752;2022-07-23T03:31:21;99047.25;;;23.70;52.08
10948;BME280;5526;42.070;24.752;2022-07-23T03:33:48;99045.75;;;23.84;51.56
10948;BME280;5526;42.070;24.752;2022-07-23T03:36:15;99048.22;;;24.01;50.70
10948;BME280;5526;42.070;24.752;2022-07-23T03:38:42;99038.66;;;24.16;49.92
10948;BME280;5526;42.070;24.752;2022-07-23T03:41:10;99046.91;;;24.35;49.22
10948;BME280;5526;42.070;24.752;2022-07-23T03:43:37;99050.91;;;24.13;49.92
10948;BME280;5526;42.070;24.752;2022-07-23T03:46:05;99043.75;;;24.05;50.47
10948;BME280;5526;42.070;24.752;2022-07-23T03:48:32;99045.31;;;24.06;50.58
10948;BME280;5526;42.070;24.752;2022-07-23T03:50:58;99047.72;;;24.23;50.33
10948;BME280;5526;42.070;24.752;2022-07-23T03:53:25;99050.41;;;24.23;50.18
10948;BME280;5526;42.070;24.752;2022-07-23T03:55:52;99049.50;;;24.19;50.05
10948;BME280;5526;42.070;24.752;2022-07-23T03:58:21;99053.97;;;24.27;49.98
10948;BME280;5526;42.070;24.752;2022-07-23T04:00:48;99053.44;;;24.22;50.24
10948;BME280;5526;42.070;24.752;2022-07-23T04:03:15;99052.28;;;24.35;50.06
10948;BME280;5526;42.070;24.752;2022-07-23T04:08:08;99046.31;;;24.69;49.46
10948;BME280;5526;42.070;24.752;2022-07-23T04:10:35;99050.25;;;24.72;49.32
10948;BME280;5526;42.070;24.752;2022-07-23T04:13:02;99049.47;;;24.71;49.51
10948;BME280;5526;42.070;24.752;2022-07-23T04:15:31;99048.25;;;24.69;49.76
10948;BME280;5526;42.070;24.752;2022-07-23T04:17:58;99060.13;;;24.68;50.03
10948;BME280;5526;42.070;24.752;2022-07-23T04:20:24;99053.09;;;24.79;49.63
10948;BME280;5526;42.070;24.752;2022-07-23T04:22:51;99064.53;;;24.88;49.39
10948;BME280;5526;42.070;24.752;2022-07-23T04:25:18;99050.41;;;24.79;49.47
10948;BME280;5526;42.070;24.752;2022-07-23T04:27:45;99059.06;;;25.00;49.27
10948;BME280;5526;42.070;24.752;2022-07-23T04:30:12;99055.69;;;25.18;49.03
10948;BME280;5526;42.070;24.752;2022-07-23T04:32:41;99062.66;;;25.35;48.31
10948;BME280;5526;42.070;24.752;2022-07-23T04:35:08;99059.69;;;25.24;48.60
10948;BME280;5526;42.070;24.752;2022-07-23T04:37:35;99060.78;;;25.23;48.84
10948;BME280;5526;42.070;24.752;2022-07-23T04:40:02;99062.13;;;25.45;48.42
10948;BME280;5526;42.070;24.752;2022-07-23T04:42:30;99069.09;;;25.46;47.66
10948;BME280;5526;42.070;24.752;2022-07-23T04:44:56;99066.81;;;25.63;46.52
10948;BME280;5526;42.070;24.752;2022-07-23T04:47:23;99068.63;;;25.59;47.35
10948;BME280;5526;42.070;24.752;2022-07-23T04:49:52;99067.66;;;25.83;47.45
10948;BME280;5526;42.070;24.752;2022-07-23T04:52:19;99064.09;;;25.79;47.51
10948;BME280;5526;42.070;24.752;2022-07-23T04:54:46;99062.59;;;25.97;47.43
10948;BME280;5526;42.070;24.752;2022-07-23T04:57:12;99074.00;;;26.25;46.60
10948;BME280;5526;42.070;24.752;2022-07-23T04:59:39;99065.03;;;26.21;46.97
10948;BME280;5526;42.070;24.752;2022-07-23T05:02:06;99067.91;;;26.28;46.80
10948;BME280;5526;42.070;24.752;2022-07-23T05:04:33;99072.56;;;26.50;46.40
10948;BME280;5526;42.070;24.752;2022-07-23T05:07:02;99073.94;;;26.78;45.88
10948;BME280;5526;42.070;24.752;2022-07-23T05:09:29;99073.72;;;26.87;45.55
10948;BME280;5526;42.070;24.752;2022-07-23T05:11:56;99076.25;;;26.99;46.02
10948;BME280;5526;42.070;24.752;2022-07-23T05:14:23;99067.75;;;27.42;45.43
10948;BME280;5526;42.070;24.752;2022-07-23T05:16:50;99066.44;;;27.58;44.82
10948;BME280;5526;42.070;24.752;2022-07-23T05:19:17;99069.97;;;27.62;44.98
10948;BME280;5526;42.070;24.752;2022-07-23T05:21:44;99069.09;;;27.81;44.97
10948;BME280;5526;42.070;24.752;2022-07-23T05:24:12;99066.31;;;28.00;44.78
10948;BME280;5526;42.070;24.752;2022-07-23T05:26:39;99061.22;;;28.25;43.87
10948;BME280;5526;42.070;24.752;2022-07-23T05:29:06;99061.09;;;28.14;43.27
10948;BME280;5526;42.070;24.752;2022-07-23T05:31:33;99064.94;;;28.13;43.52
10948;BME280;5526;42.070;24.752;2022-07-23T05:34:00;99054.34;;;28.31;43.27
10948;BME280;5526;42.070;24.752;2022-07-23T05:36:27;99059.69;;;28.27;43.10
10948;BME280;5526;42.070;24.752;2022-07-23T05:38:54;99057.75;;;28.24;43.25
10948;BME280;5526;42.070;24.752;2022-07-23T05:41:23;99057.66;;;28.47;43.11
10948;BME280;5526;42.070;24.752;2022-07-23T05:43:50;99056.72;;;28.36;43.90
10948;BME280;5526;42.070;24.752;2022-07-23T05:46:17;99059.06;;;28.70;43.46
10948;BME280;5526;42.070;24.752;2022-07-23T05:48:44;99052.19;;;29.16;42.51
10948;BME280;5526;42.070;24.752;2022-07-23T05:51:20;99052.53;;;29.11;42.39
10948;BME280;5526;42.070;24.752;2022-07-23T05:53:47;99058.13;;;29.29;42.20
10948;BME280;5526;42.070;24.752;2022-07-23T05:56:14;99051.28;;;29.49;42.28
10948;BME280;5526;42.070;24.752;2022-07-23T05:58:43;99051.88;;;29.72;41.35
10948;BME280;5526;42.070;24.752;2022-07-23T06:01:10;99059.59;;;29.23;42.28
10948;BME280;5526;42.070;24.752;2022-07-23T06:03:38;99065.97;;;29.44;41.45
10948;BME280;5526;42.070;24.752;2022-07-23T06:06:05;99062.50;;;29.47;41.29
10948;BME280;5526;42.070;24.752;2022-07-23T06:08:32;99064.66;;;29.71;40.62
10948;BME280;5526;42.070;24.752;2022-07-23T06:10:59;99058.78;;;29.59;41.11
10948;BME280;5526;42.070;24.752;2022-07-23T06:13:26;99067.47;;;29.85;40.64
10948;BME280;5526;42.070;24.752;2022-07-23T06:15:55;99069.66;;;30.23;40.30
10948;BME280;5526;42.070;24.752;2022-07-23T06:18:21;99068.06;;;30.22;40.03
10948;BME280;5526;42.070;24.752;2022-07-23T06:20:48;99068.13;;;30.36;40.23
10948;BME280;5526;42.070;24.752;2022-07-23T06:23:15;99064.03;;;30.74;39.16
10948;BME280;5526;42.070;24.752;2022-07-23T06:25:42;99073.38;;;30.90;38.55
10948;BME280;5526;42.070;24.752;2022-07-23T06:28:09;99077.59;;;30.77;38.85
10948;BME280;5526;42.070;24.752;2022-07-23T06:30:36;99076.53;;;31.13;38.29
10948;BME280;5526;42.070;24.752;2022-07-23T06:33:05;99068.38;;;31.27;37.97
10948;BME280;5526;42.070;24.752;2022-07-23T06:35:32;99066.41;;;31.14;38.23
10948;BME280;5526;42.070;24.752;2022-07-23T06:38:00;99067.63;;;31.37;38.18
10948;BME280;5526;42.070;24.752;2022-07-23T06:40:27;99070.28;;;30.99;38.84
10948;BME280;5526;42.070;24.752;2022-07-23T06:42:54;99065.69;;;31.41;38.27
10948;BME280;5526;42.070;24.752;2022-07-23T06:45:21;99062.56;;;31.46;38.33
10948;BME280;5526;42.070;24.752;2022-07-23T06:47:48;99070.34;;;31.37;38.55
10948;BME280;5526;42.070;24.752;2022-07-23T06:50:17;99059.84;;;31.43;38.17
10948;BME280;5526;42.070;24.752;2022-07-23T06:52:44;99065.59;;;30.85;39.20
10948;BME280;5526;42.070;24.752;2022-07-23T06:55:11;99057.88;;;31.12;38.90
10948;BME280;5526;42.070;24.752;2022-07-23T06:57:38;99060.25;;;31.41;38.22
10948;BME280;5526;42.070;24.752;2022-07-23T07:00:06;99062.91;;;31.87;37.30
10948;BME280;5526;42.070;24.752;2022-07-23T07:02:33;99059.28;;;32.32;37.38
10948;BME280;5526;42.070;24.752;2022-07-23T07:05:01;99063.31;;;31.68;38.31
10948;BME280;5526;42.070;24.752;2022-07-23T07:07:29;99059.81;;;31.85;37.66
10948;BME280;5526;42.070;24.752;2022-07-23T07:09:56;99051.56;;;32.13;37.26
10948;BME280;5526;42.070;24.752;2022-07-23T07:12:23;99056.03;;;32.62;36.52
10948;BME280;5526;42.070;24.752;2022-07-23T07:14:50;99052.78;;;32.91;36.20
10948;BME280;5526;42.070;24.752;2022-07-23T07:17:19;99052.38;;;33.44;35.14
10948;BME280;5526;42.070;24.752;2022-07-23T07:19:46;99036.59;;;33.18;35.56
10948;BME280;5526;42.070;24.752;2022-07-23T07:22:14;99039.19;;;33.32;35.43
10948;BME280;5526;42.070;24.752;2022-07-23T07:24:42;99037.63;;;33.38;35.38
10948;BME280;5526;42.070;24.752;2022-07-23T07:27:09;99031.28;;;33.51;35.41
10948;BME280;5526;42.070;24.752;2022-07-23T07:29:36;99034.91;;;33.75;34.90
10948;BME280;5526;42.070;24.752;2022-07-23T07:32:04;99032.34;;;33.61;35.03
10948;BME280;5526;42.070;24.752;2022-07-23T07:34:32;99036.00;;;33.88;34.66
10948;BME280;5526;42.070;24.752;2022-07-23T07:36:59;99034.91;;;33.75;35.12
10948;BME280;5526;42.070;24.752;2022-07-23T07:39:26;99032.16;;;34.15;34.98
10948;BME280;5526;42.070;24.752;2022-07-23T07:41:54;99027.28;;;34.33;34.79
10948;BME280;5526;42.070;24.752;2022-07-23T07:44:21;99036.88;;;34.45;34.39
10948;BME280;5526;42.070;24.752;2022-07-23T07:46:48;99024.47;;;34.67;34.67
10948;BME280;5526;42.070;24.752;2022-07-23T07:49:15;99022.13;;;34.65;34.30
10948;BME280;5526;42.070;24.752;2022-07-23T07:51:44;99021.09;;;34.86;33.76
10948;BME280;5526;42.070;24.752;2022-07-23T07:54:11;99019.16;;;34.83;33.75
10948;BME280;5526;42.070;24.752;2022-07-23T07:56:38;99024.81;;;34.69;33.99
10948;BME280;5526;42.070;24.752;2022-07-23T07:59:07;99021.50;;;34.54;33.73
10948;BME280;5526;42.070;24.752;2022-07-23T08:01:34;99022.75;;;34.76;34.31
10948;BME280;5526;42.070;24.752;2022-07-23T08:04:01;99014.78;;;35.39;33.80
10948;BME280;5526;42.070;24.752;2022-07-23T08:06:28;99020.41;;;35.94;32.61
10948;BME280;5526;42.070;24.752;2022-07-23T08:08:55;99022.44;;;35.90;32.51
10948;BME280;5526;42.070;24.752;2022-07-23T08:11:22;99016.25;;;36.05;32.83
10948;BME280;5526;42.070;24.752;2022-07-23T08:13:49;99017.56;;;35.35;33.43
10948;BME280;5526;42.070;24.752;2022-07-23T08:16:17;99017.09;;;35.14;33.36
10948;BME280;5526;42.070;24.752;2022-07-23T08:18:44;99019.78;;;35.63;32.67
10948;BME280;5526;42.070;24.752;2022-07-23T08:21:12;99012.72;;;35.66;32.43
10948;BME280;5526;42.070;24.752;2022-07-23T08:23:39;99016.13;;;35.93;32.19
10948;BME280;5526;42.070;24.752;2022-07-23T08:26:06;99012.19;;;35.94;31.90
10948;BME280;5526;42.070;24.752;2022-07-23T08:28:33;99006.84;;;36.26;31.56
10948;BME280;5526;42.070;24.752;2022-07-23T08:31:00;99006.53;;;36.75;31.55
10948;BME280;5526;42.070;24.752;2022-07-23T08:33:29;99002.59;;;36.76;30.25
10948;BME280;5526;42.070;24.752;2022-07-23T08:35:56;98997.31;;;36.85;30.15
10948;BME280;5526;42.070;24.752;2022-07-23T08:38:23;98995.00;;;37.16;30.44
10948;BME280;5526;42.070;24.752;2022-07-23T08:40:52;98990.19;;;37.20;30.50
10948;BME280;5526;42.070;24.752;2022-07-23T08:43:21;98981.75;;;37.43;29.59
10948;BME280;5526;42.070;24.752;2022-07-23T08:45:50;98983.44;;;37.69;29.45
10948;BME280;5526;42.070;24.752;2022-07-23T08:48:18;98969.97;;;37.99;29.53
10948;BME280;5526;42.070;24.752;2022-07-23T08:50:49;98967.63;;;38.39;27.85
10948;BME280;5526;42.070;24.752;2022-07-23T08:53:17;98966.22;;;38.60;27.87
10948;BME280;5526;42.070;24.752;2022-07-23T08:55:46;98978.19;;;38.41;27.31
10948;BME280;5526;42.070;24.752;2022-07-23T08:58:14;98974.75;;;38.37;27.75
10948;BME280;5526;42.070;24.752;2022-07-23T09:00:41;98965.72;;;38.86;26.12
10948;BME280;5526;42.070;24.752;2022-07-23T09:03:15;98958.75;;;38.60;25.15
10948;BME280;5526;42.070;24.752;2022-07-23T09:05:42;98951.47;;;38.66;25.64
10948;BME280;5526;42.070;24.752;2022-07-23T09:08:13;98956.97;;;38.91;25.94
10948;BME280;5526;42.070;24.752;2022-07-23T09:10:58;98951.00;;;38.43;23.93
10948;BME280;5526;42.070;24.752;2022-07-23T09:13:29;98939.56;;;38.32;25.13
10948;BME280;5526;42.070;24.752;2022-07-23T09:15:59;98947.81;;;38.69;24.95
10948;BME280;5526;42.070;24.752;2022-07-23T09:18:38;98951.31;;;38.82;23.62
10948;BME280;5526;42.070;24.752;2022-07-23T09:21:10;98951.56;;;38.75;23.95
10948;BME280;5526;42.070;24.752;2022-07-23T09:23:41;98952.75;;;38.87;23.47
10948;BME280;5526;42.070;24.752;2022-07-23T09:26:22;98948.47;;;38.86;23.19
10948;BME280;5526;42.070;24.752;2022-07-23T09:28:51;98955.56;;;39.21;23.18
10948;BME280;5526;42.070;24.752;2022-07-23T09:31:19;98953.50;;;39.12;23.03
10948;BME280;5526;42.070;24.752;2022-07-23T09:33:47;98946.31;;;39.15;23.76
10948;BME280;5526;42.070;24.752;2022-07-23T09:36:14;98945.81;;;39.07;23.64
10948;BME280;5526;42.070;24.752;2022-07-23T09:38:49;98952.38;;;38.63;21.52
10948;BME280;5526;42.070;24.752;2022-07-23T09:41:17;98945.84;;;38.57;22.71
10948;BME280;5526;42.070;24.752;2022-07-23T09:43:44;98945.56;;;39.14;22.11
10948;BME280;5526;42.070;24.752;2022-07-23T09:46:21;98937.50;;;39.20;20.68
10948;BME280;5526;42.070;24.752;2022-07-23T09:48:49;98937.50;;;39.20;20.43
10948;BME280;5526;42.070;24.752;2022-07-23T09:51:17;98935.91;;;39.44;20.01
10948;BME280;5526;42.070;24.752;2022-07-23T09:53:46;98933.19;;;39.53;19.19
10948;BME280;5526;42.070;24.752;2022-07-23T09:56:15;98933.19;;;39.74;18.95
10948;BME280;5526;42.070;24.752;2022-07-23T09:58:44;98929.13;;;39.79;19.04
10948;BME280;5526;42.070;24.752;2022-07-23T10:01:15;98924.22;;;40.04;19.11
10948;BME280;5526;42.070;24.752;2022-07-23T10:03:42;98925.00;;;39.83;19.18
10948;BME280;5526;42.070;24.752;2022-07-23T10:06:09;98901.75;;;39.41;19.68
10948;BME280;5526;42.070;24.752;2022-07-23T10:08:40;98922.28;;;39.28;18.78
10948;BME280;5526;42.070;24.752;2022-07-23T10:11:09;98918.78;;;38.68;19.50
10948;BME280;5526;42.070;24.752;2022-07-23T10:13:40;98922.19;;;39.53;19.54
10948;BME280;5526;42.070;24.752;2022-07-23T10:16:26;98915.78;;;40.08;19.63
10948;BME280;5526;42.070;24.752;2022-07-23T10:18:54;98910.50;;;39.92;19.68
10948;BME280;5526;42.070;24.752;2022-07-23T10:21:25;98918.25;;;40.36;19.10
10948;BME280;5526;42.070;24.752;2022-07-23T10:24:04;98911.28;;;40.62;18.74
10948;BME280;5526;42.070;24.752;2022-07-23T10:26:41;98909.69;;;40.43;18.40
10948;BME280;5526;42.070;24.752;2022-07-23T10:29:24;98906.56;;;40.32;18.52
10948;BME280;5526;42.070;24.752;2022-07-23T10:32:01;98914.94;;;40.20;19.16
10948;BME280;5526;42.070;24.752;2022-07-23T10:34:36;98898.19;;;40.45;19.29
10948;BME280;5526;42.070;24.752;2022-07-23T10:37:13;98899.78;;;40.64;18.67
10948;BME280;5526;42.070;24.752;2022-07-23T10:39:44;98895.97;;;40.79;18.61
10948;BME280;5526;42.070;24.752;2022-07-23T10:42:12;98886.50;;;40.98;18.45
10948;BME280;5526;42.070;24.752;2022-07-23T10:44:42;98879.59;;;41.21;18.44
10948;BME280;5526;42.070;24.752;2022-07-23T10:47:10;98891.41;;;41.30;18.34
10948;BME280;5526;42.070;24.752;2022-07-23T10:49:54;98886.19;;;41.51;17.78
10948;BME280;5526;42.070;24.752;2022-07-23T10:52:41;98874.97;;;41.63;18.31
10948;BME280;5526;42.070;24.752;2022-07-23T10:58:11;98870.72;;;41.44;18.45
10948;BME280;5526;42.070;24.752;2022-07-23T11:00:45;98863.09;;;41.72;18.12
10948;BME280;5526;42.070;24.752;2022-07-23T11:03:30;98862.06;;;41.60;17.22
10948;BME280;5526;42.070;24.752;2022-07-23T11:05:58;98859.31;;;41.60;17.66
10948;BME280;5526;42.070;24.752;2022-07-23T11:08:24;98858.56;;;42.01;17.49
10948;BME280;5526;42.070;24.752;2022-07-23T11:10:54;98850.19;;;41.87;16.95
10948;BME280;5526;42.070;24.752;2022-07-23T11:13:29;98853.41;;;41.76;17.40
10948;BME280;5526;42.070;24.752;2022-07-23T11:16:20;98855.75;;;41.69;17.49
10948;BME280;5526;42.070;24.752;2022-07-23T11:18:57;98843.22;;;41.50;17.34
10948;BME280;5526;42.070;24.752;2022-07-23T11:21:50;98848.44;;;41.20;17.59
10948;BME280;5526;42.070;24.752;2022-07-23T11:24:22;98847.69;;;41.47;18.25
10948;BME280;5526;42.070;24.752;2022-07-23T11:26:53;98837.66;;;41.40;17.92
10948;BME280;5526;42.070;24.752;2022-07-23T11:29:43;98834.16;;;41.40;17.29
10948;BME280;5526;42.070;24.752;2022-07-23T11:32:29;98842.00;;;41.23;17.00
10948;BME280;5526;42.070;24.752;2022-07-23T11:34:56;98834.16;;;41.31;16.74
10948;BME280;5526;42.070;24.752;2022-07-23T11:37:32;98831.38;;;41.49;16.15
10948;BME280;5526;42.070;24.752;2022-07-23T11:40:00;98833.78;;;41.65;16.75
10948;BME280;5526;42.070;24.752;2022-07-23T11:42:27;98826.28;;;42.07;17.48
10948;BME280;5526;42.070;24.752;2022-07-23T11:44:54;98817.63;;;42.14;17.07
10948;BME280;5526;42.070;24.752;2022-07-23T11:47:23;98826.94;;;42.35;16.20
10948;BME280;5526;42.070;24.752;2022-07-23T11:49:56;98822.09;;;42.12;16.31
10948;BME280;5526;42.070;24.752;2022-07-23T11:52:24;98823.19;;;42.05;16.25
10948;BME280;5526;42.070;24.752;2022-07-23T11:54:53;98814.97;;;42.29;16.88
10948;BME280;5526;42.070;24.752;2022-07-23T11:57:24;98812.38;;;42.49;16.85
10948;BME280;5526;42.070;24.752;2022-07-23T11:59:55;98816.84;;;42.70;16.77
10948;BME280;5526;42.070;24.752;2022-07-23T12:02:22;98814.84;;;43.08;16.26
10948;BME280;5526;42.070;24.752;2022-07-23T12:04:51;98811.88;;;43.26;15.63
10948;BME280;5526;42.070;24.752;2022-07-23T12:07:28;98809.63;;;43.25;15.15
10948;BME280;5526;42.070;24.752;2022-07-23T12:09:56;98804.00;;;42.96;15.13
10948;BME280;5526;42.070;24.752;2022-07-23T12:12:24;98805.78;;;42.46;15.94
10948;BME280;5526;42.070;24.752;2022-07-23T12:14:52;98801.22;;;42.58;15.79
10948;BME280;5526;42.070;24.752;2022-07-23T12:17:20;98801.72;;;42.56;15.99
10948;BME280;5526;42.070;24.752;2022-07-23T12:19:48;98807.03;;;42.45;16.12
10948;BME280;5526;42.070;24.752;2022-07-23T12:22:15;98804.84;;;42.49;16.19
10948;BME280;5526;42.070;24.752;2022-07-23T12:24:58;98795.47;;;42.70;15.98
10948;BME280;5526;42.070;24.752;2022-07-23T12:27:26;98791.69;;;42.97;16.22
10948;BME280;5526;42.070;24.752;2022-07-23T12:29:54;98783.81;;;42.66;15.82
10948;BME280;5526;42.070;24.752;2022-07-23T12:32:22;98779.44;;;42.74;15.97
10948;BME280;5526;42.070;24.752;2022-07-23T12:34:51;98775.03;;;42.44;15.78
10948;BME280;5526;42.070;24.752;2022-07-23T12:37:29;98772.13;;;42.62;15.59
10948;BME280;5526;42.070;24.752;2022-07-23T12:39:59;98773.13;;;42.50;15.06
10948;BME280;5526;42.070;24.752;2022-07-23T12:42:45;98765.63;;;42.51;15.47
10948;BME280;5526;42.070;24.752;2022-07-23T12:45:12;98771.00;;;42.22;15.42
10948;BME280;5526;42.070;24.752;2022-07-23T12:48:01;98761.41;;;42.08;16.04
10948;BME280;5526;42.070;24.752;2022-07-23T12:50:41;98762.69;;;42.31;15.65
10948;BME280;5526;42.070;24.752;2022-07-23T12:53:11;98760.16;;;42.80;15.25
10948;BME280;5526;42.070;24.752;2022-07-23T12:55:41;98756.06;;;42.90;15.09
10948;BME280;5526;42.070;24.752;2022-07-23T12:58:11;98750.44;;;42.99;14.81
10948;BME280;5526;42.070;24.752;2022-07-23T13:01:01;98756.53;;;42.74;15.16
10948;BME280;5526;42.070;24.752;2022-07-23T13:03:34;98746.88;;;42.98;14.68
10948;BME280;5526;42.070;24.752;2022-07-23T13:06:04;98738.00;;;42.80;15.35
10948;BME280;5526;42.070;24.752;2022-07-23T13:08:33;98732.00;;;42.58;14.71
10948;BME280;5526;42.070;24.752;2022-07-23T13:11:03;98735.78;;;42.69;15.04
10948;BME280;5526;42.070;24.752;2022-07-23T13:13:32;98731.28;;;42.10;15.32
10948;BME280;5526;42.070;24.752;2022-07-23T13:16:00;98732.06;;;42.72;15.53